sensor_id;sensor_type;location;lat;lon;timestamp;pressure;altitude;pressure_sealevel;temperature;humidity
39357;BME280;25077;50.302;18.996;2022-07-18T00:00:35;99060.75;;;13.83;45.30
39357;BME280;25077;50.302;18.996;2022-07-18T00:03:36;99050.94;;;13.78;44.72
39357;BME280;25077;50.302;18.996;2022-07-18T00:06:38;99057.91;;;13.76;45.56
39357;BME280;25077;50.302;18.996;2022-07-18T00:09:41;99043.50;;;13.75;45.28
39357;BME280;25077;50.302;18.996;2022-07-18T00:12:45;99052.75;;;13.71;45.85
39357;BME280;25077;50.302;18.996;2022-07-18T00:15:47;99043.81;;;13.70;45.75
39357;BME280;25077;50.302;18.996;2022-07-18T00:18:49;99040.66;;;13.68;45.68
39357;BME280;25077;50.302;18.996;2022-07-18T00:21:51;99042.94;;;13.66;46.26
39357;BME280;25077;50.302;18.996;2022-07-18T00:24:53;99046.03;;;13.64;46.55
39357;BME280;25077;50.302;18.996;2022-07-18T00:27:56;99043.31;;;13.64;45.36
39357;BME280;25077;50.302;18.996;2022-07-18T00:30:58;99042.88;;;13.62;45.59
39357;BME280;25077;50.302;18.996;2022-07-18T00:34:00;99049.81;;;13.60;45.91
39357;BME280;25077;50.302;18.996;2022-07-18T00:37:03;99043.50;;;13.56;46.75
39357;BME280;25077;50.302;18.996;2022-07-18T00:40:06;99044.25;;;13.53;46.10
39357;BME280;25077;50.302;18.996;2022-07-18T00:43:11;99051.91;;;13.47;46.02
39357;BME280;25077;50.302;18.996;2022-07-18T00:46:14;99047.91;;;13.41;45.96
39357;BME280;25077;50.302;18.996;2022-07-18T00:49:16;99050.91;;;13.36;46.69
39357;BME280;25077;50.302;18.996;2022-07-18T00:52:18;99045.38;;;13.32;46.40
39357;BME280;25077;50.302;18.996;2022-07-18T00:55:20;99046.81;;;13.26;47.28
39357;BME280;25077;50.302;18.996;2022-07-18T00:58:23;99045.88;;;13.19;46.88
39357;BME280;25077;50.302;18.996;2022-07-18T01:01:25;99040.31;;;13.11;47.50
39357;BME280;25077;50.302;18.996;2022-07-18T01:04:53;99047.88;;;13.02;47.19
39357;BME280;25077;50.302;18.996;2022-07-18T01:07:55;99048.88;;;12.94;48.06
39357;BME280;25077;50.302;18.996;2022-07-18T01:10:57;99049.84;;;12.86;47.74
39357;BME280;25077;50.302;18.996;2022-07-18T01:14:02;99045.03;;;12.79;48.62
39357;BME280;25077;50.302;18.996;2022-07-18T01:17:12;99047.63;;;12.76;48.79
39357;BME280;25077;50.302;18.996;2022-07-18T01:20:15;99049.50;;;12.72;48.05
39357;BME280;25077;50.302;18.996;2022-07-18T01:23:18;99042.81;;;12.69;47.91
39357;BME280;25077;50.302;18.996;2022-07-18T01:26:20;99048.97;;;12.66;48.08
39357;BME280;25077;50.302;18.996;2022-07-18T01:29:23;99045.03;;;12.63;48.82
39357;BME280;25077;50.302;18.996;2022-07-18T01:32:25;99042.31;;;12.63;48.04
39357;BME280;25077;50.302;18.996;2022-07-18T01:35:28;99038.44;;;12.65;49.12
39357;BME280;25077;50.302;18.996;2022-07-18T01:38:33;99035.38;;;12.66;49.02
39357;BME280;25077;50.302;18.996;2022-07-18T01:41:35;99040.47;;;12.68;49.25
39357;BME280;25077;50.302;18.996;2022-07-18T01:44:38;99040.88;;;12.70;48.22
39357;BME280;25077;50.302;18.996;2022-07-18T01:47:40;99031.94;;;12.69;49.04
39357;BME280;25077;50.302;18.996;2022-07-18T01:50:42;99029.16;;;12.66;49.15
39357;BME280;25077;50.302;18.996;2022-07-18T01:53:54;99033.38;;;12.63;50.25
39357;BME280;25077;50.302;18.996;2022-07-18T01:56:57;99025.16;;;12.59;49.59
39357;BME280;25077;50.302;18.996;2022-07-18T01:59:59;99029.25;;;12.53;48.39
39357;BME280;25077;50.302;18.996;2022-07-18T02:03:01;99029.53;;;12.48;49.40
39357;BME280;25077;50.302;18.996;2022-07-18T02:06:03;99028.72;;;12.48;50.27
39357;BME280;25077;50.302;18.996;2022-07-18T02:09:07;99032.59;;;12.47;50.03
39357;BME280;25077;50.302;18.996;2022-07-18T02:12:09;99041.09;;;12.45;49.85
39357;BME280;25077;50.302;18.996;2022-07-18T02:15:12;99034.78;;;12.41;50.14
39357;BME280;25077;50.302;18.996;2022-07-18T02:18:15;99037.06;;;12.39;49.27
39357;BME280;25077;50.302;18.996;2022-07-18T02:21:17;99038.47;;;12.33;49.79
39357;BME280;25077;50.302;18.996;2022-07-18T02:24:21;99038.31;;;12.26;49.49
39357;BME280;25077;50.302;18.996;2022-07-18T02:27:23;99044.44;;;12.23;49.94
39357;BME280;25077;50.302;18.996;2022-07-18T02:30:25;99055.13;;;12.16;51.21
39357;BME280;25077;50.302;18.996;2022-07-18T02:33:27;99044.09;;;12.08;50.74
39357;BME280;25077;50.302;18.996;2022-07-18T02:36:28;99050.22;;;12.05;50.53
39357;BME280;25077;50.302;18.996;2022-07-18T02:39:32;99048.19;;;12.02;51.10
39357;BME280;25077;50.302;18.996;2022-07-18T02:42:34;99042.22;;;11.97;50.76
39357;BME280;25077;50.302;18.996;2022-07-18T02:45:36;99043.72;;;11.94;50.87
39357;BME280;25077;50.302;18.996;2022-07-18T02:48:38;99046.00;;;11.92;50.58
39357;BME280;25077;50.302;18.996;2022-07-18T02:51:40;99052.22;;;11.93;51.33
39357;BME280;25077;50.302;18.996;2022-07-18T02:54:43;99045.09;;;11.88;50.56
39357;BME280;25077;50.302;18.996;2022-07-18T02:57:45;99044.56;;;11.82;51.09
39357;BME280;25077;50.302;18.996;2022-07-18T03:00:47;99042.91;;;11.78;51.63
39357;BME280;25077;50.302;18.996;2022-07-18T03:03:49;99049.34;;;11.73;51.31
39357;BME280;25077;50.302;18.996;2022-07-18T03:06:51;99042.72;;;11.71;51.63
39357;BME280;25077;50.302;18.996;2022-07-18T03:09:54;99043.06;;;11.69;50.90
39357;BME280;25077;50.302;18.996;2022-07-18T03:12:56;99057.84;;;11.72;51.83
39357;BME280;25077;50.302;18.996;2022-07-18T03:15:58;99053.66;;;11.74;50.70
39357;BME280;25077;50.302;18.996;2022-07-18T03:19:00;99057.97;;;11.75;51.58
39357;BME280;25077;50.302;18.996;2022-07-18T03:22:03;99049.47;;;11.77;51.29
39357;BME280;25077;50.302;18.996;2022-07-18T03:25:07;99060.75;;;11.79;52.06
39357;BME280;25077;50.302;18.996;2022-07-18T03:28:09;99058.94;;;11.83;51.70
39357;BME280;25077;50.302;18.996;2022-07-18T03:31:11;99058.69;;;11.88;51.70
39357;BME280;25077;50.302;18.996;2022-07-18T03:34:13;99068.50;;;11.93;50.93
39357;BME280;25077;50.302;18.996;2022-07-18T03:37:15;99073.31;;;11.99;51.62
39357;BME280;25077;50.302;18.996;2022-07-18T03:40:19;99071.13;;;12.05;51.57
39357;BME280;25077;50.302;18.996;2022-07-18T03:43:21;99065.88;;;12.12;50.73
39357;BME280;25077;50.302;18.996;2022-07-18T03:46:23;99073.41;;;12.19;51.32
39357;BME280;25077;50.302;18.996;2022-07-18T03:49:25;99074.41;;;12.26;51.47
39357;BME280;25077;50.302;18.996;2022-07-18T03:52:27;99068.72;;;12.31;50.24
39357;BME280;25077;50.302;18.996;2022-07-18T03:55:30;99074.22;;;12.35;50.41
39357;BME280;25077;50.302;18.996;2022-07-18T03:58:32;99083.25;;;12.39;50.47
39357;BME280;25077;50.302;18.996;2022-07-18T04:01:34;99076.31;;;12.42;50.40
39357;BME280;25077;50.302;18.996;2022-07-18T04:04:36;99083.88;;;12.48;51.00
39357;BME280;25077;50.302;18.996;2022-07-18T04:07:38;99087.91;;;12.54;50.80
39357;BME280;25077;50.302;18.996;2022-07-18T04:10:45;99084.94;;;12.59;50.02
39357;BME280;25077;50.302;18.996;2022-07-18T04:13:47;99091.22;;;12.63;50.56
39357;BME280;25077;50.302;18.996;2022-07-18T04:16:49;99090.59;;;12.70;51.09
39357;BME280;25077;50.302;18.996;2022-07-18T04:19:51;99089.53;;;12.75;51.45
39357;BME280;25077;50.302;18.996;2022-07-18T04:22:55;99090.03;;;12.77;50.67
39357;BME280;25077;50.302;18.996;2022-07-18T04:25:59;99087.00;;;12.82;50.26
39357;BME280;25077;50.302;18.996;2022-07-18T04:29:02;99092.19;;;12.87;50.31
39357;BME280;25077;50.302;18.996;2022-07-18T04:32:05;99084.22;;;12.94;49.98
39357;BME280;25077;50.302;18.996;2022-07-18T04:35:09;99083.94;;;12.99;51.35
39357;BME280;25077;50.302;18.996;2022-07-18T04:38:11;99094.50;;;13.04;50.15
39357;BME280;25077;50.302;18.996;2022-07-18T04:41:15;99089.25;;;13.11;51.03
39357;BME280;25077;50.302;18.996;2022-07-18T04:44:17;99086.25;;;13.17;50.59
39357;BME280;25077;50.302;18.996;2022-07-18T04:47:19;99091.41;;;13.22;51.35
39357;BME280;25077;50.302;18.996;2022-07-18T04:50:22;99090.28;;;13.23;51.41
39357;BME280;25077;50.302;18.996;2022-07-18T04:53:24;99085.53;;;13.20;51.79
39357;BME280;25077;50.302;18.996;2022-07-18T04:56:27;99090.19;;;13.19;51.07
39357;BME280;25077;50.302;18.996;2022-07-18T04:59:29;99084.66;;;13.15;52.21
39357;BME280;25077;50.302;18.996;2022-07-18T05:02:31;99081.59;;;13.17;51.79
39357;BME280;25077;50.302;18.996;2022-07-18T05:05:33;99079.72;;;13.21;52.55
39357;BME280;25077;50.302;18.996;2022-07-18T05:08:35;99080.31;;;13.30;52.40
39357;BME280;25077;50.302;18.996;2022-07-18T05:11:39;99087.47;;;13.38;52.42
39357;BME280;25077;50.302;18.996;2022-07-18T05:14:41;99087.56;;;13.42;52.40
39357;BME280;25077;50.302;18.996;2022-07-18T05:17:44;99088.47;;;13.50;51.78
39357;BME280;25077;50.302;18.996;2022-07-18T05:20:46;99083.22;;;13.57;52.39
39357;BME280;25077;50.302;18.996;2022-07-18T05:23:48;99077.16;;;13.67;52.67
39357;BME280;25077;50.302;18.996;2022-07-18T05:26:51;99075.75;;;13.73;52.46
39357;BME280;25077;50.302;18.996;2022-07-18T05:29:53;99083.69;;;13.82;52.18
39357;BME280;25077;50.302;18.996;2022-07-18T05:32:55;99090.03;;;13.89;52.60
39357;BME280;25077;50.302;18.996;2022-07-18T05:35:57;99077.78;;;13.96;51.99
39357;BME280;25077;50.302;18.996;2022-07-18T05:38:59;99074.09;;;14.07;52.38
39357;BME280;25077;50.302;18.996;2022-07-18T05:42:03;99082.75;;;14.13;51.52
39357;BME280;25077;50.302;18.996;2022-07-18T05:45:06;99078.63;;;14.23;51.94
39357;BME280;25077;50.302;18.996;2022-07-18T05:48:09;99080.84;;;14.40;52.03
39357;BME280;25077;50.302;18.996;2022-07-18T05:51:11;99074.09;;;14.53;52.25
39357;BME280;25077;50.302;18.996;2022-07-18T05:54:12;99071.94;;;14.66;52.01
39357;BME280;25077;50.302;18.996;2022-07-18T05:57:20;99072.16;;;14.80;51.99
39357;BME280;25077;50.302;18.996;2022-07-18T06:00:22;99072.69;;;14.89;51.41
39357;BME280;25077;50.302;18.996;2022-07-18T06:03:24;99077.88;;;14.98;50.69
39357;BME280;25077;50.302;18.996;2022-07-18T06:06:26;99074.50;;;15.05;50.79
39357;BME280;25077;50.302;18.996;2022-07-18T06:09:28;99077.31;;;15.12;50.96
39357;BME280;25077;50.302;18.996;2022-07-18T06:12:32;99085.25;;;15.20;50.65
39357;BME280;25077;50.302;18.996;2022-07-18T06:15:34;99084.94;;;15.29;49.93
39357;BME280;25077;50.302;18.996;2022-07-18T06:18:37;99083.53;;;15.39;50.08
39357;BME280;25077;50.302;18.996;2022-07-18T06:21:39;99086.72;;;15.44;49.79
39357;BME280;25077;50.302;18.996;2022-07-18T06:24:40;99091.53;;;15.55;49.29
39357;BME280;25077;50.302;18.996;2022-07-18T06:27:44;99095.84;;;15.59;48.97
39357;BME280;25077;50.302;18.996;2022-07-18T06:30:46;99092.47;;;15.69;49.06
39357;BME280;25077;50.302;18.996;2022-07-18T06:33:48;99094.94;;;15.82;48.84
39357;BME280;25077;50.302;18.996;2022-07-18T06:36:50;99086.50;;;15.94;48.99
39357;BME280;25077;50.302;18.996;2022-07-18T06:39:52;99092.56;;;16.10;47.95
39357;BME280;25077;50.302;18.996;2022-07-18T06:42:55;99096.63;;;16.27;47.53
39357;BME280;25077;50.302;18.996;2022-07-18T06:45:57;99089.75;;;16.44;47.67
39357;BME280;25077;50.302;18.996;2022-07-18T06:48:59;99087.13;;;16.58;45.67
39357;BME280;25077;50.302;18.996;2022-07-18T06:52:01;99079.81;;;16.73;46.08
39357;BME280;25077;50.302;18.996;2022-07-18T06:55:03;99088.53;;;16.89;45.66
39357;BME280;25077;50.302;18.996;2022-07-18T06:58:06;99079.25;;;17.01;44.28
39357;BME280;25077;50.302;18.996;2022-07-18T07:01:10;99084.00;;;17.11;43.97
39357;BME280;25077;50.302;18.996;2022-07-18T07:04:12;99078.59;;;17.22;43.59
39357;BME280;25077;50.302;18.996;2022-07-18T07:07:14;99084.13;;;17.32;43.72
39357;BME280;25077;50.302;18.996;2022-07-18T07:10:17;99088.09;;;17.46;44.38
39357;BME280;25077;50.302;18.996;2022-07-18T07:13:20;99085.00;;;17.58;43.15
39357;BME280;25077;50.302;18.996;2022-07-18T07:16:22;99084.28;;;17.72;43.57
39357;BME280;25077;50.302;18.996;2022-07-18T07:19:24;99091.34;;;17.80;41.91
39357;BME280;25077;50.302;18.996;2022-07-18T07:22:26;99085.94;;;17.91;42.64
39357;BME280;25077;50.302;18.996;2022-07-18T07:25:28;99087.13;;;18.04;42.25
39357;BME280;25077;50.302;18.996;2022-07-18T07:28:32;99085.19;;;18.15;41.51
39357;BME280;25077;50.302;18.996;2022-07-18T07:31:34;99085.63;;;18.24;41.03
39357;BME280;25077;50.302;18.996;2022-07-18T07:34:36;99073.50;;;18.29;41.36
39357;BME280;25077;50.302;18.996;2022-07-18T07:37:39;99073.88;;;18.38;41.59
39357;BME280;25077;50.302;18.996;2022-07-18T07:40:41;99068.81;;;18.51;41.38
39357;BME280;25077;50.302;18.996;2022-07-18T07:43:44;99075.03;;;18.55;39.09
39357;BME280;25077;50.302;18.996;2022-07-18T07:46:46;99070.75;;;18.61;40.05
39357;BME280;25077;50.302;18.996;2022-07-18T07:49:48;99066.03;;;18.68;39.83
39357;BME280;25077;50.302;18.996;2022-07-18T07:52:50;99064.88;;;18.73;38.80
39357;BME280;25077;50.302;18.996;2022-07-18T07:55:52;99066.44;;;18.78;39.22
39357;BME280;25077;50.302;18.996;2022-07-18T07:58:55;99068.81;;;18.76;38.41
39357;BME280;25077;50.302;18.996;2022-07-18T08:01:57;99058.22;;;18.81;38.16
39357;BME280;25077;50.302;18.996;2022-07-18T08:04:59;99068.41;;;18.91;38.03
39357;BME280;25077;50.302;18.996;2022-07-18T08:08:02;99063.69;;;18.96;37.62
39357;BME280;25077;50.302;18.996;2022-07-18T08:11:04;99064.03;;;19.05;37.83
39357;BME280;25077;50.302;18.996;2022-07-18T08:14:07;99063.25;;;19.15;37.42
39357;BME280;25077;50.302;18.996;2022-07-18T08:17:09;99060.88;;;19.17;37.33
39357;BME280;25077;50.302;18.996;2022-07-18T08:20:11;99066.75;;;19.22;38.59
39357;BME280;25077;50.302;18.996;2022-07-18T08:23:13;99058.88;;;19.35;38.30
39357;BME280;25077;50.302;18.996;2022-07-18T08:26:17;99049.78;;;19.45;37.83
39357;BME280;25077;50.302;18.996;2022-07-18T08:29:20;99063.88;;;19.51;36.28
39357;BME280;25077;50.302;18.996;2022-07-18T08:32:23;99062.72;;;19.59;37.47
39357;BME280;25077;50.302;18.996;2022-07-18T08:35:25;99055.25;;;19.60;37.17
39357;BME280;25077;50.302;18.996;2022-07-18T08:38:27;99053.66;;;19.69;37.26
39357;BME280;25077;50.302;18.996;2022-07-18T08:41:29;99055.97;;;19.75;36.54
39357;BME280;25077;50.302;18.996;2022-07-18T08:44:34;99053.59;;;19.80;36.50
39357;BME280;25077;50.302;18.996;2022-07-18T08:47:37;99064.59;;;19.73;36.40
39357;BME280;25077;50.302;18.996;2022-07-18T08:50:42;99071.66;;;19.74;35.75
39357;BME280;25077;50.302;18.996;2022-07-18T08:53:46;99066.16;;;19.74;36.57
39357;BME280;25077;50.302;18.996;2022-07-18T08:56:49;99071.25;;;19.79;36.53
39357;BME280;25077;50.302;18.996;2022-07-18T08:59:52;99069.28;;;19.83;35.74
39357;BME280;25077;50.302;18.996;2022-07-18T09:02:58;99067.66;;;19.89;35.74
39357;BME280;25077;50.302;18.996;2022-07-18T09:06:05;99068.00;;;19.98;35.90
39357;BME280;25077;50.302;18.996;2022-07-18T09:09:10;99062.81;;;20.08;36.59
39357;BME280;25077;50.302;18.996;2022-07-18T09:12:12;99057.31;;;20.15;36.25
39357;BME280;25077;50.302;18.996;2022-07-18T09:15:16;99057.66;;;20.20;36.09
39357;BME280;25077;50.302;18.996;2022-07-18T09:18:26;99053.66;;;20.25;34.80
39357;BME280;25077;50.302;18.996;2022-07-18T09:21:28;99057.25;;;20.22;35.99
39357;BME280;25077;50.302;18.996;2022-07-18T09:24:49;99061.63;;;20.16;33.73
39357;BME280;25077;50.302;18.996;2022-07-18T09:27:52;99057.25;;;20.22;35.94
39357;BME280;25077;50.302;18.996;2022-07-18T09:30:56;99050.13;;;20.24;35.11
39357;BME280;25077;50.302;18.996;2022-07-18T09:34:01;99053.28;;;20.26;35.62
39357;BME280;25077;50.302;18.996;2022-07-18T09:37:04;99055.63;;;20.28;35.13
39357;BME280;25077;50.302;18.996;2022-07-18T09:40:15;99039.91;;;20.29;35.19
39357;BME280;25077;50.302;18.996;2022-07-18T09:43:19;99048.13;;;20.32;35.31
39357;BME280;25077;50.302;18.996;2022-07-18T09:46:22;99041.41;;;20.40;35.41
39357;BME280;25077;50.302;18.996;2022-07-18T09:49:28;99036.59;;;20.51;35.52
39357;BME280;25077;50.302;18.996;2022-07-18T09:52:30;99052.22;;;20.65;36.03
39357;BME280;25077;50.302;18.996;2022-07-18T09:55:33;99041.09;;;20.76;35.29
39357;BME280;25077;50.302;18.996;2022-07-18T09:58:36;99046.09;;;20.88;35.60
39357;BME280;25077;50.302;18.996;2022-07-18T10:01:40;99050.31;;;20.96;35.37
39357;BME280;25077;50.302;18.996;2022-07-18T10:04:43;99041.66;;;20.98;34.78
39357;BME280;25077;50.302;18.996;2022-07-18T10:07:45;99036.44;;;21.07;35.37
39357;BME280;25077;50.302;18.996;2022-07-18T10:10:49;99029.97;;;21.24;35.58
39357;BME280;25077;50.302;18.996;2022-07-18T10:13:51;99035.69;;;21.41;35.03
39357;BME280;25077;50.302;18.996;2022-07-18T10:16:55;99037.53;;;21.51;35.39
39357;BME280;25077;50.302;18.996;2022-07-18T10:20:03;99033.44;;;21.63;34.58
39357;BME280;25077;50.302;18.996;2022-07-18T10:23:16;99033.69;;;21.72;34.29
39357;BME280;25077;50.302;18.996;2022-07-18T10:26:20;99038.03;;;21.73;34.17
39357;BME280;25077;50.302;18.996;2022-07-18T10:29:22;99014.88;;;21.67;33.74
39357;BME280;25077;50.302;18.996;2022-07-18T10:32:33;99022.34;;;21.66;33.56
39357;BME280;25077;50.302;18.996;2022-07-18T10:36:01;99032.84;;;21.78;32.64
39357;BME280;25077;50.302;18.996;2022-07-18T10:39:05;99018.88;;;21.89;34.17
39357;BME280;25077;50.302;18.996;2022-07-18T10:42:15;99026.22;;;22.03;33.60
39357;BME280;25077;50.302;18.996;2022-07-18T10:45:30;99024.50;;;22.13;33.47
39357;BME280;25077;50.302;18.996;2022-07-18T10:48:55;99019.47;;;22.31;32.94
39357;BME280;25077;50.302;18.996;2022-07-18T10:51:57;99006.63;;;22.44;33.70
39357;BME280;25077;50.302;18.996;2022-07-18T10:55:27;99010.94;;;22.69;33.37
39357;BME280;25077;50.302;18.996;2022-07-18T10:58:38;99011.53;;;22.80;32.86
39357;BME280;25077;50.302;18.996;2022-07-18T11:01:47;98998.56;;;22.77;32.25
39357;BME280;25077;50.302;18.996;2022-07-18T11:04:51;98995.69;;;22.84;33.06
39357;BME280;25077;50.302;18.996;2022-07-18T11:08:15;98989.91;;;22.98;31.02
39357;BME280;25077;50.302;18.996;2022-07-18T11:11:18;98988.59;;;23.23;32.98
39357;BME280;25077;50.302;18.996;2022-07-18T11:17:57;98984.75;;;23.56;32.35
39357;BME280;25077;50.302;18.996;2022-07-18T11:21:01;98969.69;;;24.10;31.90
39357;BME280;25077;50.302;18.996;2022-07-18T11:24:06;98973.53;;;24.61;32.55
39357;BME280;25077;50.302;18.996;2022-07-18T11:27:09;98969.13;;;25.35;31.79
39357;BME280;25077;50.302;18.996;2022-07-18T11:30:16;98979.72;;;25.91;30.40
39357;BME280;25077;50.302;18.996;2022-07-18T11:33:24;98970.13;;;26.30;29.56
39357;BME280;25077;50.302;18.996;2022-07-18T11:36:30;98976.75;;;26.45;30.22
39357;BME280;25077;50.302;18.996;2022-07-18T11:39:33;98980.31;;;26.46;29.85
39357;BME280;25077;50.302;18.996;2022-07-18T11:42:36;98978.00;;;26.44;29.48
39357;BME280;25077;50.302;18.996;2022-07-18T11:45:39;98973.53;;;26.47;29.69
39357;BME280;25077;50.302;18.996;2022-07-18T11:48:42;98963.19;;;26.47;28.65
39357;BME280;25077;50.302;18.996;2022-07-18T11:51:46;98957.16;;;26.62;28.81
39357;BME280;25077;50.302;18.996;2022-07-18T11:54:48;98959.91;;;26.74;28.73
39357;BME280;25077;50.302;18.996;2022-07-18T11:57:50;98944.31;;;26.99;29.82
39357;BME280;25077;50.302;18.996;2022-07-18T12:00:58;98951.97;;;27.39;28.49
39357;BME280;25077;50.302;18.996;2022-07-18T12:04:00;98958.91;;;27.65;26.66
39357;BME280;25077;50.302;18.996;2022-07-18T12:07:19;98947.81;;;27.74;26.51
39357;BME280;25077;50.302;18.996;2022-07-18T12:10:22;98944.38;;;28.10;29.18
39357;BME280;25077;50.302;18.996;2022-07-18T12:13:24;98943.97;;;28.58;27.88
39357;BME280;25077;50.302;18.996;2022-07-18T12:16:28;98943.31;;;29.09;27.55
39357;BME280;25077;50.302;18.996;2022-07-18T12:19:35;98940.94;;;29.77;27.43
39357;BME280;25077;50.302;18.996;2022-07-18T12:23:06;98930.19;;;30.57;22.28
39357;BME280;25077;50.302;18.996;2022-07-18T12:26:26;98935.56;;;30.99;21.09
39357;BME280;25077;50.302;18.996;2022-07-18T12:29:28;98934.69;;;31.08;25.78
39357;BME280;25077;50.302;18.996;2022-07-18T12:32:36;98929.34;;;31.54;25.14
39357;BME280;25077;50.302;18.996;2022-07-18T12:35:39;98927.44;;;31.60;21.77
39357;BME280;25077;50.302;18.996;2022-07-18T12:38:59;98914.47;;;31.63;23.24
39357;BME280;25077;50.302;18.996;2022-07-18T12:42:01;98915.09;;;32.22;24.93
39357;BME280;25077;50.302;18.996;2022-07-18T12:45:05;98905.66;;;32.92;24.07
39357;BME280;25077;50.302;18.996;2022-07-18T12:48:09;98899.38;;;33.03;23.66
39357;BME280;25077;50.302;18.996;2022-07-18T12:51:11;98910.44;;;33.18;23.88
39357;BME280;25077;50.302;18.996;2022-07-18T12:54:15;98901.47;;;33.40;23.25
39357;BME280;25077;50.302;18.996;2022-07-18T12:57:17;98893.22;;;33.68;23.09
39357;BME280;25077;50.302;18.996;2022-07-18T13:00:19;98893.03;;;33.40;22.58
39357;BME280;25077;50.302;18.996;2022-07-18T13:03:22;98895.66;;;33.17;22.60
39357;BME280;25077;50.302;18.996;2022-07-18T13:06:24;98884.88;;;33.36;22.85
39357;BME280;25077;50.302;18.996;2022-07-18T13:09:27;98882.38;;;33.92;23.26
39357;BME280;25077;50.302;18.996;2022-07-18T13:12:29;98883.16;;;34.58;23.06
39357;BME280;25077;50.302;18.996;2022-07-18T13:15:32;98883.47;;;35.33;22.59
39357;BME280;25077;50.302;18.996;2022-07-18T13:18:34;98874.31;;;36.07;21.73
39357;BME280;25077;50.302;18.996;2022-07-18T13:21:36;98870.50;;;36.63;21.70
39357;BME280;25077;50.302;18.996;2022-07-18T13:24:39;98871.06;;;37.21;20.64
39357;BME280;25077;50.302;18.996;2022-07-18T13:27:41;98872.34;;;37.20;20.18
39357;BME280;25077;50.302;18.996;2022-07-18T13:30:43;98870.28;;;36.91;20.62
39357;BME280;25077;50.302;18.996;2022-07-18T13:33:45;98865.38;;;36.56;20.31
39357;BME280;25077;50.302;18.996;2022-07-18T13:36:49;98860.78;;;36.00;21.00
39357;BME280;25077;50.302;18.996;2022-07-18T13:39:52;98871.66;;;35.62;21.12
39357;BME280;25077;50.302;18.996;2022-07-18T13:42:54;98877.84;;;34.88;20.18
39357;BME280;25077;50.302;18.996;2022-07-18T13:45:56;98861.91;;;34.40;21.05
39357;BME280;25077;50.302;18.996;2022-07-18T13:48:58;98864.22;;;34.47;21.48
39357;BME280;25077;50.302;18.996;2022-07-18T13:52:01;98860.72;;;34.97;21.58
39357;BME280;25077;50.302;18.996;2022-07-18T13:55:05;98867.06;;;35.54;21.46
39357;BME280;25077;50.302;18.996;2022-07-18T13:58:07;98852.28;;;36.17;21.19
39357;BME280;25077;50.302;18.996;2022-07-18T14:01:11;98847.31;;;36.75;21.13
39357;BME280;25077;50.302;18.996;2022-07-18T14:04:14;98850.63;;;37.40;20.74
39357;BME280;25077;50.302;18.996;2022-07-18T14:07:15;98848.22;;;37.74;19.70
39357;BME280;25077;50.302;18.996;2022-07-18T14:10:20;98842.56;;;37.49;18.20
39357;BME280;25077;50.302;18.996;2022-07-18T14:13:22;98849.97;;;36.62;19.39
39357;BME280;25077;50.302;18.996;2022-07-18T14:16:24;98840.41;;;35.72;20.14
39357;BME280;25077;50.302;18.996;2022-07-18T14:19:26;98846.56;;;35.64;19.87
39357;BME280;25077;50.302;18.996;2022-07-18T14:22:28;98845.06;;;35.58;19.75
39357;BME280;25077;50.302;18.996;2022-07-18T14:25:31;98837.94;;;35.17;19.74
39357;BME280;25077;50.302;18.996;2022-07-18T14:28:33;98837.16;;;34.89;20.15
39357;BME280;25077;50.302;18.996;2022-07-18T14:31:35;98842.78;;;35.39;20.08
39357;BME280;25077;50.302;18.996;2022-07-18T14:34:37;98832.47;;;35.64;19.83
39357;BME280;25077;50.302;18.996;2022-07-18T14:37:39;98843.75;;;35.59;19.65
39357;BME280;25077;50.302;18.996;2022-07-18T14:40:42;98826.88;;;35.59;20.49
39357;BME280;25077;50.302;18.996;2022-07-18T14:43:44;98822.69;;;36.35;20.02
39357;BME280;25077;50.302;18.996;2022-07-18T14:46:46;98821.59;;;36.85;19.35
39357;BME280;25077;50.302;18.996;2022-07-18T14:49:49;98815.78;;;37.32;19.12
39357;BME280;25077;50.302;18.996;2022-07-18T14:52:51;98818.47;;;37.43;17.40
39357;BME280;25077;50.302;18.996;2022-07-18T14:55:54;98813.88;;;36.14;18.25
39357;BME280;25077;50.302;18.996;2022-07-18T14:58:56;98817.22;;;34.92;18.48
39357;BME280;25077;50.302;18.996;2022-07-18T15:01:58;98819.00;;;34.45;19.04
39357;BME280;25077;50.302;18.996;2022-07-18T15:05:07;98818.94;;;33.69;17.93
39357;BME280;25077;50.302;18.996;2022-07-18T15:08:09;98811.69;;;33.45;19.33
39357;BME280;25077;50.302;18.996;2022-07-18T15:11:12;98807.00;;;33.74;19.28
39357;BME280;25077;50.302;18.996;2022-07-18T15:14:14;98803.22;;;33.88;18.99
39357;BME280;25077;50.302;18.996;2022-07-18T15:17:16;98801.47;;;33.96;19.30
39357;BME280;25077;50.302;18.996;2022-07-18T15:20:18;98808.69;;;34.20;19.56
39357;BME280;25077;50.302;18.996;2022-07-18T15:23:20;98804.16;;;34.50;19.21
39357;BME280;25077;50.302;18.996;2022-07-18T15:26:23;98796.50;;;34.56;19.21
39357;BME280;25077;50.302;18.996;2022-07-18T15:29:25;98792.16;;;34.66;19.74
39357;BME280;25077;50.302;18.996;2022-07-18T15:32:27;98796.53;;;35.01;19.30
39357;BME280;25077;50.302;18.996;2022-07-18T15:35:29;98790.59;;;35.33;19.09
39357;BME280;25077;50.302;18.996;2022-07-18T15:38:31;98786.41;;;35.67;18.72
39357;BME280;25077;50.302;18.996;2022-07-18T15:41:35;98790.25;;;35.64;18.29
39357;BME280;25077;50.302;18.996;2022-07-18T15:44:37;98793.69;;;34.51;18.49
39357;BME280;25077;50.302;18.996;2022-07-18T15:47:39;98787.91;;;33.89;18.98
39357;BME280;25077;50.302;18.996;2022-07-18T15:50:41;98788.94;;;33.38;18.65
39357;BME280;25077;50.302;18.996;2022-07-18T15:53:43;98793.53;;;32.72;19.23
39357;BME280;25077;50.302;18.996;2022-07-18T15:56:46;98796.59;;;32.22;18.88
39357;BME280;25077;50.302;18.996;2022-07-18T15:59:48;98782.78;;;31.92;19.52
39357;BME280;25077;50.302;18.996;2022-07-18T16:02:50;98777.47;;;31.94;19.05